Time;durP1;ratioP1;P1;durP2;ratioP2;P2;SDS_P1;SDS_P2;PMS_P1;PMS_P2;Temp;Humidity;BMP_temperature;BMP_pressure;BME280_temperature;BME280_humidity;BME280_pressure;Samples;Min_cycle;Max_cycle;Signal;HPM_P1;HPM_P2
2023/10/13 00:01:19;;;;;;;4.45;2.53;;;;;;;;;;10388061;28;20049;-88
2023/10/13 00:06:23;;;;;;;3.35;2.25;;;;;;;;;;10378623;28;20112;-88
2023/10/13 00:11:28;;;;;;;4.70;2.33;;;;;;;;;;10378195;28;20060;-87
2023/10/13 00:16:34;;;;;;;2.15;1.80;;;;;;;;;;10366180;28;20042;-87
2023/10/13 00:21:38;;;;;;;2.42;1.80;;;;;;;;;;10382490;28;20564;-87
2023/10/13 00:26:43;;;;;;;2.60;1.92;;;;;;;;;;10381554;28;20050;-88
2023/10/13 00:31:48;;;;;;;3.97;1.70;;;;;;;;;;10381262;28;20128;-88
2023/10/13 00:37:12;;;;;;;5.57;1.80;;;;;;;;;;10383850;28;20132;-89
2023/10/13 00:42:25;;;;;;;2.63;1.40;;;;;;;;;;10356516;28;20928;-89
2023/10/13 00:47:47;;;;;;;2.83;1.63;;;;;;;;;;10375571;28;20706;-90
2023/10/13 00:52:51;;;;;;;3.13;1.60;;;;;;;;;;10383814;28;20088;-90
2023/10/13 00:57:59;;;;;;;1.92;1.27;;;;;;;;;;10385937;28;20108;-89
2023/10/13 01:03:06;;;;;;;2.88;1.65;;;;;;;;;;10380603;28;20069;-89
2023/10/13 01:08:12;;;;;;;2.17;1.55;;;;;;;;;;10359568;28;20548;-89
2023/10/13 01:13:17;;;;;;;2.25;1.58;;;;;;;;;;10362461;28;20050;-89
2023/10/13 01:18:21;;;;;;;1.88;1.35;;;;;;;;;;10371884;28;20050;-89
2023/10/13 01:23:28;;;;;;;1.92;1.60;;;;;;;;;;10381030;28;20096;-89
2023/10/13 01:28:44;;;;;;;2.60;1.83;;;;;;;;;;10392461;28;20061;-89
2023/10/13 01:33:51;;;;;;;3.42;1.45;;;;;;;;;;10373931;28;20738;-90
2023/10/13 01:39:01;;;;;;;4.03;2.17;;;;;;;;;;10388978;28;20056;-90
2023/10/13 01:44:05;;;;;;;3.45;1.77;;;;;;;;;;10353920;28;20129;-90
2023/10/13 01:49:09;;;;;;;4.22;1.80;;;;;;;;;;10379926;28;20467;-91
2023/10/13 01:54:15;;;;;;;3.85;1.65;;;;;;;;;;10369912;28;20462;-89
2023/10/13 01:59:22;;;;;;;3.25;1.70;;;;;;;;;;10374756;28;20049;-89
2023/10/13 02:04:26;;;;;;;3.10;1.83;;;;;;;;;;10370827;28;20042;-89
2023/10/13 02:09:31;;;;;;;2.05;1.70;;;;;;;;;;10389021;28;20073;-90
2023/10/13 02:14:36;;;;;;;3.00;1.30;;;;;;;;;;10373138;28;20417;-93
2023/10/13 02:19:44;;;;;;;3.00;1.83;;;;;;;;;;10379216;28;20050;-89
2023/10/13 02:24:52;;;;;;;3.78;1.90;;;;;;;;;;10366307;28;20057;-89
2023/10/13 02:29:58;;;;;;;4.38;1.90;;;;;;;;;;10367869;28;20092;-91
2023/10/13 02:35:07;;;;;;;4.38;2.08;;;;;;;;;;10381976;28;20141;-90
2023/10/13 02:40:14;;;;;;;4.97;2.17;;;;;;;;;;10376053;28;20056;-89
2023/10/13 02:45:21;;;;;;;5.60;3.08;;;;;;;;;;10368161;28;20045;-91
2023/10/13 02:50:25;;;;;;;3.08;2.28;;;;;;;;;;10379321;28;20060;-90
2023/10/13 02:55:31;;;;;;;4.03;1.90;;;;;;;;;;10373957;28;20421;-89
2023/10/13 03:00:40;;;;;;;2.85;2.20;;;;;;;;;;10368961;28;20057;-89
2023/10/13 03:05:44;;;;;;;2.58;2.10;;;;;;;;;;10371516;28;20046;-91
2023/10/13 03:10:53;;;;;;;3.95;2.80;;;;;;;;;;10363259;28;20049;-90
2023/10/13 03:15:57;;;;;;;6.85;3.00;;;;;;;;;;10370150;28;20559;-89
2023/10/13 03:21:02;;;;;;;5.90;2.60;;;;;;;;;;10346610;28;20100;-90
2023/10/13 03:26:12;;;;;;;7.40;2.95;;;;;;;;;;10389835;28;20512;-90
2023/10/13 03:31:18;;;;;;;5.60;3.40;;;;;;;;;;10357277;28;20045;-90
2023/10/13 03:36:56;;;;;;;;;;;;;;;;;;10386972;28;20099;-92
2023/10/13 03:41:53;;;;;;;6.10;2.60;;;;;;;;;;10395717;28;19921;-90
2023/10/13 03:47:08;;;;;;;5.20;3.05;;;;;;;;;;10368780;28;20512;-90
2023/10/13 03:52:13;;;;;;;10.02;4.15;;;;;;;;;;10373280;28;20058;-87
2023/10/13 03:57:18;;;;;;;9.85;3.58;;;;;;;;;;10393267;28;20041;-88
2023/10/13 04:02:26;;;;;;;6.70;3.15;;;;;;;;;;10359056;28;20053;-88
2023/10/13 04:08:44;;;;;;;6.60;2.97;;;;;;;;;;10368081;28;20137;-87
2023/10/13 04:19:07;;;;;;;6.40;3.42;;;;;;;;;;10361720;28;20049;-87
2023/10/13 04:29:50;;;;;;;6.00;3.00;;;;;;;;;;10302152;28;20095;-88
2023/10/13 04:34:58;;;;;;;8.45;3.50;;;;;;;;;;10398544;28;20072;-88
2023/10/13 04:40:09;;;;;;;6.70;3.58;;;;;;;;;;10375198;28;20050;-88
2023/10/13 04:45:38;;;;;;;6.45;3.78;;;;;;;;;;10370344;28;20059;-88
2023/10/13 04:50:45;;;;;;;6.50;3.22;;;;;;;;;;10366785;28;20052;-88
2023/10/13 04:56:07;;;;;;;7.40;3.72;;;;;;;;;;10384348;28;20056;-87
2023/10/13 05:01:49;;;;;;;5.40;3.70;;;;;;;;;;10375154;28;20053;-88
2023/10/13 05:44:48;;;;;;;5.38;3.00;;;;;;;;;;10363596;28;20049;-89
2023/10/13 05:50:04;;;;;;;7.45;3.28;;;;;;;;;;10390068;28;20061;-89
2023/10/13 06:32:39;;;;;;;7.60;3.05;;;;;;;;;;10391840;28;20052;-90
2023/10/13 06:37:44;;;;;;;8.55;3.15;;;;;;;;;;10358280;28;20378;-89
2023/10/13 06:42:48;;;;;;;5.07;3.13;;;;;;;;;;10384360;28;20049;-88
2023/10/13 06:47:53;;;;;;;6.30;3.33;;;;;;;;;;10387981;28;20133;-89
2023/10/13 06:53:01;;;;;;;8.97;3.97;;;;;;;;;;10372609;28;20132;-89
2023/10/13 06:58:06;;;;;;;8.00;3.10;;;;;;;;;;10394429;28;20545;-91
2023/10/13 07:03:17;;;;;;;6.88;3.65;;;;;;;;;;10382145;28;20543;-92
2023/10/13 07:08:25;;;;;;;5.93;3.10;;;;;;;;;;10371044;28;21511;-89
2023/10/13 07:13:29;;;;;;;7.28;2.92;;;;;;;;;;10361329;28;20095;-90
2023/10/13 07:18:49;;;;;;;5.47;3.00;;;;;;;;;;10365942;28;20050;-89
2023/10/13 07:24:08;;;;;;;5.35;3.13;;;;;;;;;;10352179;28;20075;-88
2023/10/13 07:29:15;;;;;;;5.50;2.47;;;;;;;;;;10398101;28;20050;-89
2023/10/13 07:34:26;;;;;;;8.77;3.40;;;;;;;;;;10370668;28;20064;-92
2023/10/13 07:39:33;;;;;;;8.45;4.15;;;;;;;;;;10370888;28;20137;-91
2023/10/13 07:44:45;;;;;;;7.47;4.05;;;;;;;;;;10420729;23;20053;-78
2023/10/13 07:49:50;;;;;;;9.68;4.38;;;;;;;;;;10435493;28;20402;-77
2023/10/13 07:55:10;;;;;;;14.88;4.22;;;;;;;;;;10442903;28;20593;-78
2023/10/13 08:00:26;;;;;;;10.07;3.97;;;;;;;;;;10431922;28;20049;-78
2023/10/13 08:05:39;;;;;;;9.15;3.70;;;;;;;;;;10433875;28;20041;-79
2023/10/13 08:10:45;;;;;;;9.55;4.05;;;;;;;;;;10460060;28;20510;-78
2023/10/13 08:16:08;;;;;;;7.72;3.75;;;;;;;;;;10449394;28;20063;-80
2023/10/13 08:21:16;;;;;;;10.30;3.60;;;;;;;;;;10425472;28;20598;-80
2023/10/13 08:26:56;;;;;;;8.27;3.55;;;;;;;;;;10436849;28;20567;-79
2023/10/13 08:32:14;;;;;;;7.70;3.42;;;;;;;;;;10458001;28;20127;-77
2023/10/13 08:37:28;;;;;;;8.40;3.50;;;;;;;;;;10409097;28;20092;-77
2023/10/13 08:42:52;;;;;;;7.25;3.03;;;;;;;;;;10438186;28;20053;-78
2023/10/13 08:48:07;;;;;;;5.10;2.92;;;;;;;;;;10438531;28;20189;-78
2023/10/13 08:53:26;;;;;;;6.13;3.60;;;;;;;;;;10453199;28;20045;-77
2023/10/13 08:59:05;;;;;;;5.53;2.85;;;;;;;;;;10441986;28;20144;-78
2023/10/13 09:04:27;;;;;;;6.03;2.95;;;;;;;;;;10432222;28;20087;-78
2023/10/13 09:09:35;;;;;;;4.82;2.50;;;;;;;;;;10444114;28;20091;-78
2023/10/13 09:14:44;;;;;;;3.63;2.45;;;;;;;;;;10441117;28;20566;-78
2023/10/13 09:19:56;;;;;;;4.38;2.50;;;;;;;;;;10432967;28;20050;-78
2023/10/13 09:25:00;;;;;;;4.60;2.45;;;;;;;;;;10451824;28;20052;-77
2023/10/13 09:30:18;;;;;;;3.58;2.40;;;;;;;;;;10440803;28;20534;-78
2023/10/13 09:35:23;;;;;;;5.38;2.83;;;;;;;;;;10442293;28;20052;-77
2023/10/13 09:40:28;;;;;;;6.95;3.58;;;;;;;;;;10422129;28;20260;-78
2023/10/13 09:45:36;;;;;;;4.75;3.15;;;;;;;;;;10401669;28;20774;-78
2023/10/13 09:50:44;;;;;;;8.35;3.53;;;;;;;;;;10435247;28;20095;-78
2023/10/13 09:55:52;;;;;;;4.93;3.40;;;;;;;;;;10455045;28;20132;-78
2023/10/13 10:01:08;;;;;;;4.55;2.95;;;;;;;;;;10429176;28;20053;-77
2023/10/13 10:06:27;;;;;;;4.65;2.80;;;;;;;;;;10449584;28;20041;-77
2023/10/13 10:12:05;;;;;;;6.68;3.70;;;;;;;;;;10452354;28;20108;-77
2023/10/13 10:17:10;;;;;;;6.75;4.00;;;;;;;;;;10438919;28;20048;-77
2023/10/13 10:22:17;;;;;;;8.82;5.13;;;;;;;;;;10452272;28;20471;-78
2023/10/13 10:27:26;;;;;;;5.15;3.75;;;;;;;;;;10452175;28;20053;-77
2023/10/13 10:32:41;;;;;;;7.10;4.10;;;;;;;;;;10432626;28;20160;-78
2023/10/13 10:37:48;;;;;;;5.85;3.53;;;;;;;;;;10442587;28;20079;-77
2023/10/13 10:42:53;;;;;;;6.13;3.67;;;;;;;;;;10443552;28;20095;-77
2023/10/13 10:47:58;;;;;;;4.30;3.22;;;;;;;;;;10447507;28;20063;-77
2023/10/13 10:53:08;;;;;;;4.57;3.30;;;;;;;;;;10441343;28;20090;-77
2023/10/13 10:58:28;;;;;;;5.50;3.50;;;;;;;;;;10445209;28;20072;-77
2023/10/13 11:03:37;;;;;;;8.10;3.80;;;;;;;;;;10430166;28;20061;-77
2023/10/13 11:08:43;;;;;;;7.25;4.32;;;;;;;;;;10447158;28;20048;-77
2023/10/13 11:13:51;;;;;;;6.63;4.23;;;;;;;;;;10445856;28;20536;-77
2023/10/13 11:19:05;;;;;;;5.78;3.80;;;;;;;;;;10447801;28;20045;-77
2023/10/13 11:24:10;;;;;;;6.22;4.40;;;;;;;;;;10448454;28;20160;-77
2023/10/13 11:29:13;;;;;;;5.32;3.88;;;;;;;;;;10442990;28;20064;-77
2023/10/13 11:34:18;;;;;;;6.32;4.18;;;;;;;;;;10436253;28;20048;-78
2023/10/13 11:39:24;;;;;;;9.98;4.25;;;;;;;;;;10424097;28;20114;-77
2023/10/13 11:44:43;;;;;;;6.07;3.40;;;;;;;;;;10449576;28;20038;-77
2023/10/13 11:49:48;;;;;;;7.15;4.10;;;;;;;;;;10437930;28;20052;-77
2023/10/13 11:54:52;;;;;;;7.40;4.72;;;;;;;;;;10445188;28;20075;-77
2023/10/13 12:00:24;;;;;;;6.93;4.70;;;;;;;;;;10444964;28;20143;-77
2023/10/13 12:05:37;;;;;;;6.05;4.10;;;;;;;;;;10424273;28;20045;-77
2023/10/13 12:10:49;;;;;;;4.28;3.00;;;;;;;;;;10437003;28;20137;-77
2023/10/13 12:15:56;;;;;;;8.65;3.75;;;;;;;;;;10423735;28;20096;-77
2023/10/13 12:21:10;;;;;;;5.45;3.10;;;;;;;;;;10424431;28;20056;-77
2023/10/13 12:26:19;;;;;;;5.45;3.60;;;;;;;;;;10429181;28;20065;-77
2023/10/13 12:31:26;;;;;;;5.30;3.03;;;;;;;;;;10424262;28;20065;-76
2023/10/13 12:36:40;;;;;;;3.67;2.63;;;;;;;;;;10416785;28;20048;-77
2023/10/13 12:52:31;;;;;;;4.40;3.03;;;;;;;;;;10411403;28;20099;-77
2023/10/13 12:57:42;;;;;;;5.90;3.22;;;;;;;;;;10417728;28;20084;-77
2023/10/13 13:02:46;;;;;;;7.45;4.18;;;;;;;;;;10412810;28;20053;-77
2023/10/13 13:07:53;;;;;;;7.20;4.00;;;;;;;;;;10433384;28;20049;-76
2023/10/13 13:12:57;;;;;;;10.75;4.18;;;;;;;;;;10425884;28;20061;-76
2023/10/13 13:18:09;;;;;;;6.70;4.03;;;;;;;;;;10417432;28;20144;-77
2023/10/13 13:23:14;;;;;;;8.88;4.53;;;;;;;;;;10433543;28;20103;-77
2023/10/13 13:28:19;;;;;;;9.48;4.05;;;;;;;;;;10439033;28;20053;-77
2023/10/13 13:33:25;;;;;;;6.50;3.40;;;;;;;;;;10451844;28;20143;-78
2023/10/13 13:38:31;;;;;;;7.82;3.85;;;;;;;;;;10431429;28;20064;-77
2023/10/13 13:57:05;;;;;;;8.38;3.75;;;;;;;;;;10369279;28;20057;-78
2023/10/13 14:09:43;;;;;;;9.15;3.40;;;;;;;;;;10302049;23;20062;-89
2023/10/13 14:14:51;;;;;;;5.47;3.35;;;;;;;;;;10356762;28;20053;-90
2023/10/13 14:19:54;;;;;;;4.72;3.50;;;;;;;;;;10376490;28;20460;-87
2023/10/13 14:25:04;;;;;;;6.18;3.58;;;;;;;;;;10368947;28;20049;-89
2023/10/13 14:30:10;;;;;;;6.28;3.17;;;;;;;;;;10371870;28;20037;-88
2023/10/13 14:35:15;;;;;;;5.28;2.70;;;;;;;;;;10355307;28;20112;-89
2023/10/13 14:40:22;;;;;;;5.88;3.35;;;;;;;;;;10359869;28;20046;-88
2023/10/13 14:45:28;;;;;;;6.35;3.45;;;;;;;;;;10361114;28;20046;-88
2023/10/13 14:50:33;;;;;;;4.68;3.45;;;;;;;;;;10354425;28;20041;-88
2023/10/13 14:55:39;;;;;;;8.77;3.38;;;;;;;;;;10372714;28;20045;-88
2023/10/13 15:00:45;;;;;;;;;;;;;;;;;;10380439;28;20041;-89
2023/10/13 15:05:48;;;;;;;5.13;3.10;;;;;;;;;;10365962;28;20008;-89
2023/10/13 15:10:52;;;;;;;4.45;2.45;;;;;;;;;;10368407;28;20034;-89
2023/10/13 15:15:58;;;;;;;5.25;3.10;;;;;;;;;;10355241;28;20049;-89
2023/10/13 15:21:01;;;;;;;;;;;;;;;;;;10339602;28;20042;-89
2023/10/13 15:26:09;;;;;;;4.05;2.63;;;;;;;;;;10351315;28;19921;-90
2023/10/13 15:31:25;;;;;;;3.67;2.20;;;;;;;;;;10368914;28;20041;-92
2023/10/13 15:36:31;;;;;;;4.13;2.35;;;;;;;;;;10331571;28;20057;-88
2023/10/13 15:41:37;;;;;;;;;;;;;;;;;;10362730;28;20030;-88
2023/10/13 15:46:42;;;;;;;2.88;2.03;;;;;;;;;;10356059;28;19979;-88
2023/10/13 15:51:49;;;;;;;3.95;2.15;;;;;;;;;;10361776;28;20049;-89
2023/10/13 15:56:54;;;;;;;2.90;1.80;;;;;;;;;;10374071;28;20060;-89
2023/10/13 16:01:59;;;;;;;3.10;1.80;;;;;;;;;;10361947;28;20042;-87
2023/10/13 16:07:08;;;;;;;3.10;2.03;;;;;;;;;;10343198;28;20049;-88
2023/10/13 16:12:15;;;;;;;4.97;1.95;;;;;;;;;;10355733;28;20041;-88
2023/10/13 16:17:23;;;;;;;3.45;1.83;;;;;;;;;;10361183;28;20053;-89
2023/10/13 16:22:27;;;;;;;2.55;1.80;;;;;;;;;;10352712;28;20133;-89
2023/10/13 16:27:30;;;;;;;2.67;2.00;;;;;;;;;;10388091;28;20053;-89
2023/10/13 16:32:40;;;;;;;3.58;2.00;;;;;;;;;;10369910;28;20050;-89
2023/10/13 16:37:45;;;;;;;2.80;1.70;;;;;;;;;;10385889;28;20088;-89
2023/10/13 16:42:52;;;;;;;2.65;1.83;;;;;;;;;;10378649;28;20184;-90
2023/10/13 16:47:57;;;;;;;4.00;2.25;;;;;;;;;;10353984;28;20053;-89
2023/10/13 16:53:01;;;;;;;2.77;1.90;;;;;;;;;;10361767;28;20045;-89
2023/10/13 16:58:05;;;;;;;5.22;2.00;;;;;;;;;;10364400;28;20501;-88
2023/10/13 17:03:11;;;;;;;3.25;1.80;;;;;;;;;;10378601;28;20063;-89
2023/10/13 17:08:15;;;;;;;3.83;1.73;;;;;;;;;;10370472;28;20057;-89
2023/10/13 17:13:19;;;;;;;3.88;1.73;;;;;;;;;;10371617;28;20050;-89
2023/10/13 17:18:24;;;;;;;2.72;1.45;;;;;;;;;;10365563;28;20187;-89
2023/10/13 17:23:34;;;;;;;2.42;1.60;;;;;;;;;;10384098;28;20099;-89
2023/10/13 17:28:39;;;;;;;3.63;1.48;;;;;;;;;;10381835;28;20057;-89
2023/10/13 17:33:44;;;;;;;4.03;1.67;;;;;;;;;;10379849;28;20042;-89
2023/10/13 17:38:48;;;;;;;3.07;1.53;;;;;;;;;;10375338;28;20488;-88
2023/10/13 17:43:51;;;;;;;2.47;1.50;;;;;;;;;;10353418;28;20057;-89
2023/10/13 17:48:58;;;;;;;4.40;1.30;;;;;;;;;;10389319;28;20401;-88
2023/10/13 19:45:29;;;;;;;4.47;2.40;;;;;;;;;;12869466;22;1256167;-77
2023/10/13 19:50:36;;;;;;;2.45;2.08;;;;;;;;;;12794908;23;20035;-77
2023/10/13 19:55:41;;;;;;;6.53;2.40;;;;;;;;;;12793662;23;20021;-76
2023/10/13 20:00:46;;;;;;;4.28;2.60;;;;;;;;;;12793185;23;20025;-77
2023/10/13 20:05:49;;;;;;;6.07;2.60;;;;;;;;;;12805763;23;20017;-76
2023/10/13 20:10:52;;;;;;;3.08;2.00;;;;;;;;;;12793421;23;20064;-77
2023/10/13 20:15:57;;;;;;;5.40;2.63;;;;;;;;;;12790924;23;20025;-77
2023/10/13 20:21:01;;;;;;;5.03;2.40;;;;;;;;;;12805339;23;20049;-77
2023/10/13 20:26:08;;;;;;;5.05;2.53;;;;;;;;;;12804747;23;20017;-76
2023/10/13 20:31:12;;;;;;;5.68;2.53;;;;;;;;;;12804022;23;20353;-77
2023/10/13 20:36:18;;;;;;;5.00;2.80;;;;;;;;;;12803846;23;20027;-77
2023/10/13 20:41:21;;;;;;;3.17;2.42;;;;;;;;;;12791355;23;20021;-77
2023/10/13 20:46:26;;;;;;;3.97;2.28;;;;;;;;;;12790812;23;20468;-77
2023/10/13 20:51:30;;;;;;;5.47;2.87;;;;;;;;;;12791557;23;20079;-77
2023/10/13 20:56:33;;;;;;;4.18;2.33;;;;;;;;;;12801553;23;20361;-77
2023/10/13 21:01:38;;;;;;;5.18;2.38;;;;;;;;;;12813372;23;20025;-77
2023/10/13 21:06:44;;;;;;;3.42;2.17;;;;;;;;;;12813750;23;20072;-77
2023/10/13 21:11:48;;;;;;;4.20;2.15;;;;;;;;;;12800564;23;20076;-77
2023/10/13 21:16:54;;;;;;;5.20;3.00;;;;;;;;;;12799499;23;20068;-77
2023/10/13 21:21:57;;;;;;;3.92;2.45;;;;;;;;;;12798914;23;20024;-77
2023/10/13 21:27:01;;;;;;;3.17;2.22;;;;;;;;;;12798517;23;20025;-76
2023/10/13 21:32:07;;;;;;;5.53;3.25;;;;;;;;;;12789310;23;20504;-77
2023/10/13 21:37:11;;;;;;;6.47;3.40;;;;;;;;;;12789803;23;20044;-77
2023/10/13 21:42:14;;;;;;;7.63;3.10;;;;;;;;;;12790894;23;20024;-76
2023/10/13 21:47:19;;;;;;;6.45;2.75;;;;;;;;;;12790345;23;20129;-76
2023/10/13 21:52:22;;;;;;;7.35;3.30;;;;;;;;;;12789826;23;20047;-77
2023/10/13 21:57:26;;;;;;;7.05;2.63;;;;;;;;;;12790182;23;20116;-77
2023/10/13 22:02:32;;;;;;;6.47;2.45;;;;;;;;;;12790325;23;20059;-76
2023/10/13 22:07:35;;;;;;;4.55;2.33;;;;;;;;;;12789710;23;20028;-77
2023/10/13 22:12:38;;;;;;;4.25;2.55;;;;;;;;;;12787886;23;20441;-77
2023/10/13 22:17:43;;;;;;;4.63;2.42;;;;;;;;;;12787896;23;20072;-76
2023/10/13 22:22:47;;;;;;;5.35;2.15;;;;;;;;;;12795285;23;20076;-77
2023/10/13 22:27:51;;;;;;;5.15;2.72;;;;;;;;;;12790988;23;20120;-77
2023/10/13 22:32:55;;;;;;;6.00;2.22;;;;;;;;;;12794054;23;20103;-76
2023/10/13 22:37:58;;;;;;;5.35;2.40;;;;;;;;;;12793154;23;20025;-77
2023/10/13 22:43:02;;;;;;;3.60;2.30;;;;;;;;;;12793441;23;20418;-77
2023/10/13 22:48:08;;;;;;;4.72;1.95;;;;;;;;;;12793287;23;20025;-76
2023/10/13 22:53:13;;;;;;;7.22;3.30;;;;;;;;;;12788097;23;20119;-77
2023/10/13 22:58:17;;;;;;;9.32;3.85;;;;;;;;;;12787467;23;20422;-77
2023/10/13 23:03:22;;;;;;;7.53;3.60;;;;;;;;;;12809661;23;20411;-77
2023/10/13 23:08:34;;;;;;;7.70;3.78;;;;;;;;;;12801680;23;20503;-76
2023/10/13 23:13:38;;;;;;;5.25;3.10;;;;;;;;;;12796077;23;20494;-76
2023/10/13 23:18:45;;;;;;;9.43;3.78;;;;;;;;;;12791372;23;20468;-76
2023/10/13 23:23:49;;;;;;;5.70;3.15;;;;;;;;;;12791843;23;20389;-76
2023/10/13 23:28:53;;;;;;;9.10;3.75;;;;;;;;;;12793556;23;20029;-76
2023/10/13 23:33:58;;;;;;;7.05;2.40;;;;;;;;;;12794272;23;20053;-77
2023/10/13 23:39:08;;;;;;;4.20;2.37;;;;;;;;;;12876299;23;20051;-76
2023/10/13 23:44:15;;;;;;;4.45;2.10;;;;;;;;;;12874678;23;20263;-77
2023/10/13 23:49:19;;;;;;;6.38;3.13;;;;;;;;;;12874516;23;20020;-76
2023/10/13 23:54:23;;;;;;;5.70;2.25;;;;;;;;;;12855171;23;20375;-77
2023/10/13 23:59:27;;;;;;;5.07;2.05;;;;;;;;;;12855015;23;20052;-76
